sensor_id;sensor_type;location;lat;lon;timestamp;pressure;altitude;pressure_sealevel;temperature;humidity
64211;BME280;50528;48.514;14.394;2022-07-23T00:00:37;94035.08;;;23.10;60.37
64211;BME280;50528;48.514;14.394;2022-07-23T00:01:41;94037.23;;;23.12;60.34
64211;BME280;50528;48.514;14.394;2022-07-23T00:02:42;94039.43;;;23.11;60.27
64211;BME280;50528;48.514;14.394;2022-07-23T00:03:45;94039.44;;;23.11;60.14
64211;BME280;50528;48.514;14.394;2022-07-23T00:04:47;94038.80;;;23.11;59.97
64211;BME280;50528;48.514;14.394;2022-07-23T00:05:49;94041.80;;;23.11;60.01
64211;BME280;50528;48.514;14.394;2022-07-23T00:06:53;94041.24;;;23.09;60.16
64211;BME280;50528;48.514;14.394;2022-07-23T00:07:56;94045.13;;;23.10;60.16
64211;BME280;50528;48.514;14.394;2022-07-23T00:08:58;94042.83;;;23.08;60.30
64211;BME280;50528;48.514;14.394;2022-07-23T00:10:00;94046.33;;;23.07;60.23
64211;BME280;50528;48.514;14.394;2022-07-23T00:11:02;94047.34;;;23.06;60.44
64211;BME280;50528;48.514;14.394;2022-07-23T00:12:05;94046.70;;;23.06;60.57
64211;BME280;50528;48.514;14.394;2022-07-23T00:13:07;94043.61;;;23.05;60.72
64211;BME280;50528;48.514;14.394;2022-07-23T00:14:09;94045.10;;;23.04;61.00
64211;BME280;50528;48.514;14.394;2022-07-23T00:15:11;94046.02;;;23.04;61.17
64211;BME280;50528;48.514;14.394;2022-07-23T00:16:13;94042.77;;;23.03;61.13
64211;BME280;50528;48.514;14.394;2022-07-23T00:17:16;94042.83;;;23.03;61.30
64211;BME280;50528;48.514;14.394;2022-07-23T00:18:18;94042.21;;;23.01;61.19
64211;BME280;50528;48.514;14.394;2022-07-23T00:19:20;94040.95;;;22.98;61.23
64211;BME280;50528;48.514;14.394;2022-07-23T00:20:22;94042.26;;;22.96;61.28
64211;BME280;50528;48.514;14.394;2022-07-23T00:21:24;94039.67;;;22.95;61.26
64211;BME280;50528;48.514;14.394;2022-07-23T00:22:26;94037.96;;;22.93;61.37
64211;BME280;50528;48.514;14.394;2022-07-23T00:23:30;94040.30;;;22.92;61.40
64211;BME280;50528;48.514;14.394;2022-07-23T00:24:33;94037.66;;;22.91;61.57
64211;BME280;50528;48.514;14.394;2022-07-23T00:25:35;94035.83;;;22.91;61.48
64211;BME280;50528;48.514;14.394;2022-07-23T00:26:37;94030.65;;;22.90;61.49
64211;BME280;50528;48.514;14.394;2022-07-23T00:27:39;94034.65;;;22.93;61.65
64211;BME280;50528;48.514;14.394;2022-07-23T00:28:42;94030.17;;;22.92;61.79
64211;BME280;50528;48.514;14.394;2022-07-23T00:29:44;94027.11;;;22.92;61.96
64211;BME280;50528;48.514;14.394;2022-07-23T00:30:46;94022.46;;;22.92;62.26
64211;BME280;50528;48.514;14.394;2022-07-23T00:31:48;94020.63;;;22.92;62.22
64211;BME280;50528;48.514;14.394;2022-07-23T00:32:53;94013.96;;;22.90;62.33
64211;BME280;50528;48.514;14.394;2022-07-23T00:33:58;94016.77;;;22.92;62.27
64211;BME280;50528;48.514;14.394;2022-07-23T00:35:03;94016.52;;;22.91;62.31
64211;BME280;50528;48.514;14.394;2022-07-23T00:36:06;94013.71;;;22.92;62.12
64211;BME280;50528;48.514;14.394;2022-07-23T00:37:09;94010.38;;;22.92;62.09
64211;BME280;50528;48.514;14.394;2022-07-23T00:38:12;94008.80;;;22.93;62.03
64211;BME280;50528;48.514;14.394;2022-07-23T00:39:15;94000.35;;;22.91;62.14
64211;BME280;50528;48.514;14.394;2022-07-23T00:40:20;94003.76;;;22.92;62.08
64211;BME280;50528;48.514;14.394;2022-07-23T00:41:22;94000.67;;;22.89;62.12
64211;BME280;50528;48.514;14.394;2022-07-23T00:42:24;93999.72;;;22.89;62.30
64211;BME280;50528;48.514;14.394;2022-07-23T00:43:26;94001.90;;;22.87;62.27
64211;BME280;50528;48.514;14.394;2022-07-23T00:44:28;94001.48;;;22.87;62.53
64211;BME280;50528;48.514;14.394;2022-07-23T00:45:31;94003.29;;;22.86;62.68
64211;BME280;50528;48.514;14.394;2022-07-23T00:46:34;94003.04;;;22.85;62.69
64211;BME280;50528;48.514;14.394;2022-07-23T00:47:36;93996.18;;;22.82;62.75
64211;BME280;50528;48.514;14.394;2022-07-23T00:48:39;93998.80;;;22.84;62.73
64211;BME280;50528;48.514;14.394;2022-07-23T00:49:41;94001.13;;;22.85;63.02
64211;BME280;50528;48.514;14.394;2022-07-23T00:50:43;94002.64;;;22.81;63.15
64211;BME280;50528;48.514;14.394;2022-07-23T00:51:47;94001.45;;;22.72;63.51
64211;BME280;50528;48.514;14.394;2022-07-23T00:52:50;94002.43;;;22.61;63.49
64211;BME280;50528;48.514;14.394;2022-07-23T00:53:53;93998.65;;;22.55;63.77
64211;BME280;50528;48.514;14.394;2022-07-23T00:54:55;93996.89;;;22.48;63.92
64211;BME280;50528;48.514;14.394;2022-07-23T00:55:58;94002.85;;;22.46;63.79
64211;BME280;50528;48.514;14.394;2022-07-23T00:57:00;93999.58;;;22.43;63.97
64211;BME280;50528;48.514;14.394;2022-07-23T00:58:04;94001.25;;;22.44;63.74
64211;BME280;50528;48.514;14.394;2022-07-23T00:59:07;93995.16;;;22.45;64.00
64211;BME280;50528;48.514;14.394;2022-07-23T01:00:11;93994.50;;;22.44;64.05
64211;BME280;50528;48.514;14.394;2022-07-23T01:01:14;93991.01;;;22.43;64.12
64211;BME280;50528;48.514;14.394;2022-07-23T01:02:16;93986.70;;;22.44;64.36
64211;BME280;50528;48.514;14.394;2022-07-23T01:03:18;93988.67;;;22.44;64.44
64211;BME280;50528;48.514;14.394;2022-07-23T01:04:21;93986.95;;;22.43;64.60
64211;BME280;50528;48.514;14.394;2022-07-23T01:05:23;93985.95;;;22.42;64.56
64211;BME280;50528;48.514;14.394;2022-07-23T01:06:26;93979.73;;;22.42;64.60
64211;BME280;50528;48.514;14.394;2022-07-23T01:07:28;93980.14;;;22.43;64.52
64211;BME280;50528;48.514;14.394;2022-07-23T01:08:31;93974.50;;;22.43;64.52
64211;BME280;50528;48.514;14.394;2022-07-23T01:09:33;93971.01;;;22.44;64.48
64211;BME280;50528;48.514;14.394;2022-07-23T01:10:36;93971.89;;;22.43;64.59
64211;BME280;50528;48.514;14.394;2022-07-23T01:11:38;93969.96;;;22.43;64.63
64211;BME280;50528;48.514;14.394;2022-07-23T01:12:40;93963.66;;;22.42;64.63
64211;BME280;50528;48.514;14.394;2022-07-23T01:13:43;93958.69;;;22.42;64.74
64211;BME280;50528;48.514;14.394;2022-07-23T01:14:56;93955.02;;;22.42;64.76
64211;BME280;50528;48.514;14.394;2022-07-23T01:15:58;93957.14;;;22.42;64.58
64211;BME280;50528;48.514;14.394;2022-07-23T01:17:00;93952.82;;;22.37;64.65
64211;BME280;50528;48.514;14.394;2022-07-23T01:18:04;93954.84;;;22.35;64.69
64211;BME280;50528;48.514;14.394;2022-07-23T01:19:07;93953.48;;;22.34;64.73
64211;BME280;50528;48.514;14.394;2022-07-23T01:20:10;93952.35;;;22.34;64.82
64211;BME280;50528;48.514;14.394;2022-07-23T01:21:12;93947.54;;;22.34;64.96
64211;BME280;50528;48.514;14.394;2022-07-23T01:22:18;93947.44;;;22.35;65.02
64211;BME280;50528;48.514;14.394;2022-07-23T01:23:20;93940.94;;;22.34;64.92
64211;BME280;50528;48.514;14.394;2022-07-23T01:24:22;93937.81;;;22.32;65.04
64211;BME280;50528;48.514;14.394;2022-07-23T01:25:25;93927.06;;;22.28;65.26
64211;BME280;50528;48.514;14.394;2022-07-23T01:26:27;93923.85;;;22.28;65.31
64211;BME280;50528;48.514;14.394;2022-07-23T01:27:29;93917.35;;;22.24;65.34
64211;BME280;50528;48.514;14.394;2022-07-23T01:28:32;93919.35;;;22.23;65.51
64211;BME280;50528;48.514;14.394;2022-07-23T01:29:36;93914.58;;;22.20;65.59
64211;BME280;50528;48.514;14.394;2022-07-23T01:30:38;93908.59;;;22.16;65.72
64211;BME280;50528;48.514;14.394;2022-07-23T01:31:41;93907.80;;;22.16;65.84
64211;BME280;50528;48.514;14.394;2022-07-23T01:32:43;93902.45;;;22.14;65.78
64211;BME280;50528;48.514;14.394;2022-07-23T01:33:45;93896.35;;;22.09;65.73
64211;BME280;50528;48.514;14.394;2022-07-23T01:34:47;93899.40;;;22.11;65.81
64211;BME280;50528;48.514;14.394;2022-07-23T01:35:49;93900.32;;;22.09;65.93
64211;BME280;50528;48.514;14.394;2022-07-23T01:36:51;93897.23;;;22.06;65.86
64211;BME280;50528;48.514;14.394;2022-07-23T01:37:55;93897.84;;;22.03;66.11
64211;BME280;50528;48.514;14.394;2022-07-23T01:38:57;93891.88;;;21.98;66.00
64211;BME280;50528;48.514;14.394;2022-07-23T01:40:00;93896.30;;;21.95;66.28
64211;BME280;50528;48.514;14.394;2022-07-23T01:41:04;93893.09;;;21.93;66.14
64211;BME280;50528;48.514;14.394;2022-07-23T01:42:07;93891.77;;;21.89;66.27
64211;BME280;50528;48.514;14.394;2022-07-23T01:43:10;93891.99;;;21.85;66.22
64211;BME280;50528;48.514;14.394;2022-07-23T01:44:13;93891.98;;;21.85;66.34
64211;BME280;50528;48.514;14.394;2022-07-23T01:45:15;93890.98;;;21.82;66.44
64211;BME280;50528;48.514;14.394;2022-07-23T01:46:18;93891.96;;;21.78;66.46
64211;BME280;50528;48.514;14.394;2022-07-23T01:47:20;93887.21;;;21.76;66.50
64211;BME280;50528;48.514;14.394;2022-07-23T01:48:22;93884.34;;;21.77;66.52
64211;BME280;50528;48.514;14.394;2022-07-23T01:49:25;93880.22;;;21.76;66.53
64211;BME280;50528;48.514;14.394;2022-07-23T01:50:27;93881.42;;;21.78;66.51
64211;BME280;50528;48.514;14.394;2022-07-23T01:51:29;93876.38;;;21.78;66.58
64211;BME280;50528;48.514;14.394;2022-07-23T01:52:31;93877.20;;;21.79;66.48
64211;BME280;50528;48.514;14.394;2022-07-23T01:53:34;93876.84;;;21.78;66.54
64211;BME280;50528;48.514;14.394;2022-07-23T01:54:38;93880.45;;;21.81;66.53
64211;BME280;50528;48.514;14.394;2022-07-23T01:55:42;93879.14;;;21.80;66.63
64211;BME280;50528;48.514;14.394;2022-07-23T01:56:44;93882.70;;;21.81;66.60
64211;BME280;50528;48.514;14.394;2022-07-23T01:57:47;93878.35;;;21.79;66.58
64211;BME280;50528;48.514;14.394;2022-07-23T01:58:49;93877.10;;;21.79;66.65
64211;BME280;50528;48.514;14.394;2022-07-23T01:59:52;93872.76;;;21.79;66.60
64211;BME280;50528;48.514;14.394;2022-07-23T02:00:55;93873.46;;;21.80;66.56
64211;BME280;50528;48.514;14.394;2022-07-23T02:02:00;93873.95;;;21.82;66.56
64211;BME280;50528;48.514;14.394;2022-07-23T02:03:03;93874.80;;;21.82;66.58
64211;BME280;50528;48.514;14.394;2022-07-23T02:04:05;93876.81;;;21.81;66.67
64211;BME280;50528;48.514;14.394;2022-07-23T02:05:08;93883.83;;;21.79;66.93
64211;BME280;50528;48.514;14.394;2022-07-23T02:06:10;93886.30;;;21.79;67.22
64211;BME280;50528;48.514;14.394;2022-07-23T02:07:13;93892.59;;;21.80;67.44
64211;BME280;50528;48.514;14.394;2022-07-23T02:08:15;93899.45;;;21.78;67.18
64211;BME280;50528;48.514;14.394;2022-07-23T02:09:18;93898.55;;;21.75;67.35
64211;BME280;50528;48.514;14.394;2022-07-23T02:10:21;93900.25;;;21.74;66.97
64211;BME280;50528;48.514;14.394;2022-07-23T02:11:24;93906.86;;;21.73;66.64
64211;BME280;50528;48.514;14.394;2022-07-23T02:12:26;93911.55;;;21.74;66.60
64211;BME280;50528;48.514;14.394;2022-07-23T02:13:28;93921.54;;;21.74;66.48
64211;BME280;50528;48.514;14.394;2022-07-23T02:14:35;93917.86;;;21.76;66.42
64211;BME280;50528;48.514;14.394;2022-07-23T02:15:41;93914.52;;;21.75;65.85
64211;BME280;50528;48.514;14.394;2022-07-23T02:16:43;93913.08;;;21.80;65.03
64211;BME280;50528;48.514;14.394;2022-07-23T02:17:45;93919.05;;;21.80;64.89
64211;BME280;50528;48.514;14.394;2022-07-23T02:18:48;93923.84;;;21.83;64.93
64211;BME280;50528;48.514;14.394;2022-07-23T02:19:50;93925.55;;;21.83;65.03
64211;BME280;50528;48.514;14.394;2022-07-23T02:20:52;93920.55;;;21.83;65.14
64211;BME280;50528;48.514;14.394;2022-07-23T02:21:54;93918.97;;;21.82;64.96
64211;BME280;50528;48.514;14.394;2022-07-23T02:22:56;93919.90;;;21.86;65.00
64211;BME280;50528;48.514;14.394;2022-07-23T02:23:58;93910.31;;;21.86;65.04
64211;BME280;50528;48.514;14.394;2022-07-23T02:25:00;93907.13;;;21.89;64.98
64211;BME280;50528;48.514;14.394;2022-07-23T02:26:03;93912.89;;;21.91;64.90
64211;BME280;50528;48.514;14.394;2022-07-23T02:27:06;93910.88;;;21.94;64.91
64211;BME280;50528;48.514;14.394;2022-07-23T02:28:11;93913.00;;;21.96;64.81
64211;BME280;50528;48.514;14.394;2022-07-23T02:29:13;93903.95;;;21.97;64.42
64211;BME280;50528;48.514;14.394;2022-07-23T02:30:15;93903.14;;;22.01;64.12
64211;BME280;50528;48.514;14.394;2022-07-23T02:31:19;93899.70;;;22.01;64.05
64211;BME280;50528;48.514;14.394;2022-07-23T02:32:22;93906.21;;;22.03;64.07
64211;BME280;50528;48.514;14.394;2022-07-23T02:33:24;93902.11;;;22.03;64.02
64211;BME280;50528;48.514;14.394;2022-07-23T02:34:27;93904.98;;;22.05;64.22
64211;BME280;50528;48.514;14.394;2022-07-23T02:35:29;93901.20;;;22.03;64.03
64211;BME280;50528;48.514;14.394;2022-07-23T02:36:31;93907.23;;;22.07;64.04
64211;BME280;50528;48.514;14.394;2022-07-23T02:37:34;93905.92;;;22.08;63.82
64211;BME280;50528;48.514;14.394;2022-07-23T02:38:36;93910.70;;;22.12;63.94
64211;BME280;50528;48.514;14.394;2022-07-23T02:39:39;93908.86;;;22.12;63.90
64211;BME280;50528;48.514;14.394;2022-07-23T02:40:42;93913.64;;;22.14;63.94
64211;BME280;50528;48.514;14.394;2022-07-23T02:41:44;93919.27;;;22.15;63.95
64211;BME280;50528;48.514;14.394;2022-07-23T02:42:46;93921.98;;;22.16;63.88
64211;BME280;50528;48.514;14.394;2022-07-23T02:43:48;93919.33;;;22.15;63.68
64211;BME280;50528;48.514;14.394;2022-07-23T02:44:51;93919.62;;;22.18;63.41
64211;BME280;50528;48.514;14.394;2022-07-23T02:45:54;93915.54;;;22.20;63.33
64211;BME280;50528;48.514;14.394;2022-07-23T02:46:56;93913.68;;;22.19;62.78
64211;BME280;50528;48.514;14.394;2022-07-23T02:47:58;93911.32;;;22.23;62.57
64211;BME280;50528;48.514;14.394;2022-07-23T02:49:01;93909.25;;;22.24;62.44
64211;BME280;50528;48.514;14.394;2022-07-23T02:50:05;93909.63;;;22.26;62.33
64211;BME280;50528;48.514;14.394;2022-07-23T02:51:08;93913.48;;;22.27;62.05
64211;BME280;50528;48.514;14.394;2022-07-23T02:52:16;93912.63;;;22.28;62.30
64211;BME280;50528;48.514;14.394;2022-07-23T02:53:21;93908.83;;;22.29;61.95
64211;BME280;50528;48.514;14.394;2022-07-23T02:54:24;93907.79;;;22.28;61.79
64211;BME280;50528;48.514;14.394;2022-07-23T02:55:26;93915.16;;;22.30;61.85
64211;BME280;50528;48.514;14.394;2022-07-23T02:56:28;93913.46;;;22.31;61.96
64211;BME280;50528;48.514;14.394;2022-07-23T02:57:31;93909.70;;;22.33;62.03
64211;BME280;50528;48.514;14.394;2022-07-23T02:58:33;93913.47;;;22.34;61.89
64211;BME280;50528;48.514;14.394;2022-07-23T02:59:41;93907.66;;;22.33;61.97
64211;BME280;50528;48.514;14.394;2022-07-23T03:00:46;93901.29;;;22.31;61.92
64211;BME280;50528;48.514;14.394;2022-07-23T03:01:49;93912.22;;;22.36;61.91
64211;BME280;50528;48.514;14.394;2022-07-23T03:02:51;93908.02;;;22.33;62.31
64211;BME280;50528;48.514;14.394;2022-07-23T03:03:54;93909.52;;;22.32;62.36
64211;BME280;50528;48.514;14.394;2022-07-23T03:04:57;93909.30;;;22.29;62.36
64211;BME280;50528;48.514;14.394;2022-07-23T03:05:59;93912.27;;;22.27;62.45
64211;BME280;50528;48.514;14.394;2022-07-23T03:07:01;93912.14;;;22.26;62.87
64211;BME280;50528;48.514;14.394;2022-07-23T03:08:04;93910.20;;;22.21;63.02
64211;BME280;50528;48.514;14.394;2022-07-23T03:09:06;93914.41;;;22.23;63.14
64211;BME280;50528;48.514;14.394;2022-07-23T03:10:09;93918.59;;;22.23;63.42
64211;BME280;50528;48.514;14.394;2022-07-23T03:11:11;93921.82;;;22.18;63.74
64211;BME280;50528;48.514;14.394;2022-07-23T03:12:14;93923.81;;;22.13;63.99
64211;BME280;50528;48.514;14.394;2022-07-23T03:13:19;93920.38;;;22.09;64.05
64211;BME280;50528;48.514;14.394;2022-07-23T03:14:22;93923.00;;;22.08;64.09
64211;BME280;50528;48.514;14.394;2022-07-23T03:15:25;93924.95;;;22.07;64.03
64211;BME280;50528;48.514;14.394;2022-07-23T03:16:27;93924.51;;;22.06;64.11
64211;BME280;50528;48.514;14.394;2022-07-23T03:17:29;93927.82;;;22.06;63.90
64211;BME280;50528;48.514;14.394;2022-07-23T03:18:32;93922.61;;;22.01;64.11
64211;BME280;50528;48.514;14.394;2022-07-23T03:19:41;93928.44;;;21.98;64.40
64211;BME280;50528;48.514;14.394;2022-07-23T03:20:44;93929.59;;;21.92;64.82
64211;BME280;50528;48.514;14.394;2022-07-23T03:21:46;93934.70;;;21.85;65.20
64211;BME280;50528;48.514;14.394;2022-07-23T03:22:48;93935.55;;;21.80;65.42
64211;BME280;50528;48.514;14.394;2022-07-23T03:23:50;93939.01;;;21.73;65.54
64211;BME280;50528;48.514;14.394;2022-07-23T03:24:52;93940.13;;;21.68;65.72
64211;BME280;50528;48.514;14.394;2022-07-23T03:25:58;93939.61;;;21.67;65.87
64211;BME280;50528;48.514;14.394;2022-07-23T03:27:00;93940.38;;;21.63;66.17
64211;BME280;50528;48.514;14.394;2022-07-23T03:28:03;93935.19;;;21.63;66.16
64211;BME280;50528;48.514;14.394;2022-07-23T03:29:05;93939.35;;;21.64;66.34
64211;BME280;50528;48.514;14.394;2022-07-23T03:30:09;93941.45;;;21.63;66.40
64211;BME280;50528;48.514;14.394;2022-07-23T03:31:11;93940.54;;;21.63;66.67
64211;BME280;50528;48.514;14.394;2022-07-23T03:32:14;93947.45;;;21.65;66.70
64211;BME280;50528;48.514;14.394;2022-07-23T03:33:17;93948.91;;;21.64;66.84
64211;BME280;50528;48.514;14.394;2022-07-23T03:34:19;93947.93;;;21.63;66.87
64211;BME280;50528;48.514;14.394;2022-07-23T03:35:22;93949.52;;;21.66;66.60
64211;BME280;50528;48.514;14.394;2022-07-23T03:36:25;93954.88;;;21.68;66.17
64211;BME280;50528;48.514;14.394;2022-07-23T03:37:28;93953.77;;;21.69;65.76
64211;BME280;50528;48.514;14.394;2022-07-23T03:38:30;93959.63;;;21.71;65.41
64211;BME280;50528;48.514;14.394;2022-07-23T03:39:33;93965.75;;;21.70;65.33
64211;BME280;50528;48.514;14.394;2022-07-23T03:40:35;93971.77;;;21.71;65.22
64211;BME280;50528;48.514;14.394;2022-07-23T03:41:37;93967.59;;;21.72;64.96
64211;BME280;50528;48.514;14.394;2022-07-23T03:42:42;93966.27;;;21.69;64.76
64211;BME280;50528;48.514;14.394;2022-07-23T03:43:46;93971.46;;;21.71;64.81
64211;BME280;50528;48.514;14.394;2022-07-23T03:44:48;93965.79;;;21.67;64.65
64211;BME280;50528;48.514;14.394;2022-07-23T03:45:50;93976.56;;;21.74;64.28
64211;BME280;50528;48.514;14.394;2022-07-23T03:46:53;93976.98;;;21.76;64.24
64211;BME280;50528;48.514;14.394;2022-07-23T03:47:55;93974.55;;;21.77;64.25
64211;BME280;50528;48.514;14.394;2022-07-23T03:48:58;93979.09;;;21.79;64.36
64211;BME280;50528;48.514;14.394;2022-07-23T03:50:01;93978.84;;;21.82;64.33
64211;BME280;50528;48.514;14.394;2022-07-23T03:51:04;93977.83;;;21.82;64.31
64211;BME280;50528;48.514;14.394;2022-07-23T03:52:06;93982.75;;;21.84;64.12
64211;BME280;50528;48.514;14.394;2022-07-23T03:53:08;93983.29;;;21.85;64.07
64211;BME280;50528;48.514;14.394;2022-07-23T03:54:11;93983.75;;;21.86;64.01
64211;BME280;50528;48.514;14.394;2022-07-23T03:55:13;93990.49;;;21.88;63.93
64211;BME280;50528;48.514;14.394;2022-07-23T03:56:16;93988.39;;;21.88;63.79
64211;BME280;50528;48.514;14.394;2022-07-23T03:57:18;93994.44;;;21.88;63.66
64211;BME280;50528;48.514;14.394;2022-07-23T03:58:22;94000.10;;;21.87;63.68
64211;BME280;50528;48.514;14.394;2022-07-23T03:59:25;94010.30;;;21.89;63.65
64211;BME280;50528;48.514;14.394;2022-07-23T04:00:27;94011.75;;;21.89;63.52
64211;BME280;50528;48.514;14.394;2022-07-23T04:01:29;94014.78;;;21.90;63.42
64211;BME280;50528;48.514;14.394;2022-07-23T04:02:32;94018.99;;;21.92;63.46
64211;BME280;50528;48.514;14.394;2022-07-23T04:03:34;94019.42;;;21.94;63.50
64211;BME280;50528;48.514;14.394;2022-07-23T04:04:36;94017.59;;;21.99;63.38
64211;BME280;50528;48.514;14.394;2022-07-23T04:05:38;94017.58;;;21.99;63.02
64211;BME280;50528;48.514;14.394;2022-07-23T04:06:40;94021.12;;;22.01;62.84
64211;BME280;50528;48.514;14.394;2022-07-23T04:07:45;94022.35;;;22.01;62.41
64211;BME280;50528;48.514;14.394;2022-07-23T04:08:47;94020.77;;;22.00;62.41
64211;BME280;50528;48.514;14.394;2022-07-23T04:09:49;94019.77;;;22.01;62.20
64211;BME280;50528;48.514;14.394;2022-07-23T04:10:51;94018.06;;;22.03;61.78
64211;BME280;50528;48.514;14.394;2022-07-23T04:11:53;94017.21;;;22.04;61.59
64211;BME280;50528;48.514;14.394;2022-07-23T04:12:55;94014.50;;;22.05;61.34
64211;BME280;50528;48.514;14.394;2022-07-23T04:13:58;94016.12;;;22.07;61.14
64211;BME280;50528;48.514;14.394;2022-07-23T04:15:00;94021.85;;;22.09;61.09
64211;BME280;50528;48.514;14.394;2022-07-23T04:16:03;94029.56;;;22.12;60.78
64211;BME280;50528;48.514;14.394;2022-07-23T04:17:06;94024.83;;;22.13;60.77
64211;BME280;50528;48.514;14.394;2022-07-23T04:18:08;94022.33;;;22.18;60.42
64211;BME280;50528;48.514;14.394;2022-07-23T04:19:10;94020.79;;;22.24;60.05
64211;BME280;50528;48.514;14.394;2022-07-23T04:20:12;94012.15;;;22.23;60.01
64211;BME280;50528;48.514;14.394;2022-07-23T04:21:14;94010.20;;;22.22;60.04
64211;BME280;50528;48.514;14.394;2022-07-23T04:22:17;94013.95;;;22.22;60.23
64211;BME280;50528;48.514;14.394;2022-07-23T04:23:19;94013.34;;;22.22;60.38
64211;BME280;50528;48.514;14.394;2022-07-23T04:24:21;94014.27;;;22.25;60.24
64211;BME280;50528;48.514;14.394;2022-07-23T04:25:24;94009.88;;;22.27;60.58
64211;BME280;50528;48.514;14.394;2022-07-23T04:26:26;94004.08;;;22.27;60.74
64211;BME280;50528;48.514;14.394;2022-07-23T04:27:28;93998.73;;;22.27;60.75
64211;BME280;50528;48.514;14.394;2022-07-23T04:28:31;93994.76;;;22.33;60.64
64211;BME280;50528;48.514;14.394;2022-07-23T04:29:33;94000.94;;;22.34;60.49
64211;BME280;50528;48.514;14.394;2022-07-23T04:30:36;94003.58;;;22.35;60.52
64211;BME280;50528;48.514;14.394;2022-07-23T04:31:38;94000.94;;;22.37;60.42
64211;BME280;50528;48.514;14.394;2022-07-23T04:32:40;93997.23;;;22.37;60.35
64211;BME280;50528;48.514;14.394;2022-07-23T04:33:43;94003.41;;;22.42;60.07
64211;BME280;50528;48.514;14.394;2022-07-23T04:34:45;94002.44;;;22.45;59.82
64211;BME280;50528;48.514;14.394;2022-07-23T04:35:48;94006.48;;;22.49;59.81
64211;BME280;50528;48.514;14.394;2022-07-23T04:36:54;94000.27;;;22.50;59.86
64211;BME280;50528;48.514;14.394;2022-07-23T04:37:56;94006.56;;;22.56;59.77
64211;BME280;50528;48.514;14.394;2022-07-23T04:38:59;94002.70;;;22.57;59.60
64211;BME280;50528;48.514;14.394;2022-07-23T04:40:01;94004.86;;;22.59;59.47
64211;BME280;50528;48.514;14.394;2022-07-23T04:41:04;94005.73;;;22.63;59.46
64211;BME280;50528;48.514;14.394;2022-07-23T04:42:06;94011.13;;;22.67;59.34
64211;BME280;50528;48.514;14.394;2022-07-23T04:43:08;94002.52;;;22.70;59.22
64211;BME280;50528;48.514;14.394;2022-07-23T04:44:10;94002.64;;;22.73;58.98
64211;BME280;50528;48.514;14.394;2022-07-23T04:45:12;94001.55;;;22.77;59.02
64211;BME280;50528;48.514;14.394;2022-07-23T04:46:15;93999.23;;;22.81;58.96
64211;BME280;50528;48.514;14.394;2022-07-23T04:47:18;93998.33;;;22.84;58.96
64211;BME280;50528;48.514;14.394;2022-07-23T04:48:24;93994.71;;;22.89;58.08
64211;BME280;50528;48.514;14.394;2022-07-23T04:49:26;93993.34;;;22.92;57.87
64211;BME280;50528;48.514;14.394;2022-07-23T04:50:28;93993.09;;;22.91;58.03
64211;BME280;50528;48.514;14.394;2022-07-23T04:51:30;93991.84;;;22.92;58.03
64211;BME280;50528;48.514;14.394;2022-07-23T04:52:33;93995.41;;;22.97;58.04
64211;BME280;50528;48.514;14.394;2022-07-23T04:53:37;93994.05;;;22.98;58.37
64211;BME280;50528;48.514;14.394;2022-07-23T04:54:40;93996.41;;;23.01;58.26
64211;BME280;50528;48.514;14.394;2022-07-23T04:55:42;93995.02;;;23.02;58.18
64211;BME280;50528;48.514;14.394;2022-07-23T04:56:44;93992.61;;;23.04;58.20
64211;BME280;50528;48.514;14.394;2022-07-23T04:57:46;93996.84;;;23.06;57.96
64211;BME280;50528;48.514;14.394;2022-07-23T04:58:49;93998.99;;;23.10;57.92
64211;BME280;50528;48.514;14.394;2022-07-23T04:59:51;94002.87;;;23.13;57.95
64211;BME280;50528;48.514;14.394;2022-07-23T05:00:53;94004.22;;;23.15;58.05
64211;BME280;50528;48.514;14.394;2022-07-23T05:01:55;94004.08;;;23.18;58.37
64211;BME280;50528;48.514;14.394;2022-07-23T05:02:57;94002.71;;;23.22;58.34
64211;BME280;50528;48.514;14.394;2022-07-23T05:04:00;93997.38;;;23.24;58.09
64211;BME280;50528;48.514;14.394;2022-07-23T05:05:02;93996.99;;;23.24;57.83
64211;BME280;50528;48.514;14.394;2022-07-23T05:06:04;93996.92;;;23.24;57.88
64211;BME280;50528;48.514;14.394;2022-07-23T05:07:07;93989.11;;;23.24;57.78
64211;BME280;50528;48.514;14.394;2022-07-23T05:08:09;93994.88;;;23.26;57.61
64211;BME280;50528;48.514;14.394;2022-07-23T05:09:11;93993.63;;;23.28;57.50
64211;BME280;50528;48.514;14.394;2022-07-23T05:10:15;93992.40;;;23.30;57.40
64211;BME280;50528;48.514;14.394;2022-07-23T05:11:17;93994.13;;;23.31;57.24
64211;BME280;50528;48.514;14.394;2022-07-23T05:12:25;93989.79;;;23.34;57.26
64211;BME280;50528;48.514;14.394;2022-07-23T05:13:27;93998.75;;;23.34;57.15
64211;BME280;50528;48.514;14.394;2022-07-23T05:14:29;94004.98;;;23.37;57.16
64211;BME280;50528;48.514;14.394;2022-07-23T05:15:31;94009.97;;;23.38;57.15
64211;BME280;50528;48.514;14.394;2022-07-23T05:16:33;94014.19;;;23.42;57.19
64211;BME280;50528;48.514;14.394;2022-07-23T05:17:36;94022.33;;;23.45;57.04
64211;BME280;50528;48.514;14.394;2022-07-23T05:18:38;94022.05;;;23.45;56.46
64211;BME280;50528;48.514;14.394;2022-07-23T05:19:41;94027.45;;;23.53;55.90
64211;BME280;50528;48.514;14.394;2022-07-23T05:20:43;94027.42;;;23.58;55.51
64211;BME280;50528;48.514;14.394;2022-07-23T05:21:45;94035.23;;;23.56;55.47
64211;BME280;50528;48.514;14.394;2022-07-23T05:22:48;94041.05;;;23.52;55.55
64211;BME280;50528;48.514;14.394;2022-07-23T05:23:50;94045.02;;;23.55;54.87
64211;BME280;50528;48.514;14.394;2022-07-23T05:24:52;94050.08;;;23.55;55.22
64211;BME280;50528;48.514;14.394;2022-07-23T05:25:57;94049.47;;;23.55;55.00
64211;BME280;50528;48.514;14.394;2022-07-23T05:26:59;94049.66;;;23.54;55.27
64211;BME280;50528;48.514;14.394;2022-07-23T05:28:02;94052.33;;;23.58;55.21